You are listening to:
LKTB Gnd/Twr/Radar - Brno, Czech Republic

LKTB 281830Z 12010KT 9999 OVC016 03/01 Q1019 NOSIG

If stream doesn't start automatically press the play button
If stream stops then reload player then press play